Time;durP1;ratioP1;P1;durP2;ratioP2;P2;SDS_P1;SDS_P2;PMS_P1;PMS_P2;Temp;Humidity;BMP_temperature;BMP_pressure;BME280_temperature;BME280_humidity;BME280_pressure;Samples;Min_cycle;Max_cycle;Signal;HPM_P1;HPM_P2
2023/08/06 00:01:51;;;;;;;16.95;9.40;;;;;;;22.12;69.21;98380.50;7749893;32;37104;-81
2023/08/06 00:06:07;;;;;;;15.80;9.25;;;;;;;22.17;69.31;98370.25;7767181;32;39712;-81
2023/08/06 00:10:24;;;;;;;17.33;10.48;;;;;;;22.09;69.46;98374.91;7748472;32;39942;-81
2023/08/06 00:14:40;;;;;;;15.48;10.55;;;;;;;21.99;69.54;98390.31;7739929;32;37980;-81
2023/08/06 00:18:56;;;;;;;16.08;10.45;;;;;;;21.53;71.32;98396.19;7739887;32;37891;-83
2023/08/06 00:23:12;;;;;;;15.52;10.45;;;;;;;21.55;71.23;98385.50;7739793;32;39951;-83
2023/08/06 00:27:29;;;;;;;19.23;11.02;;;;;;;21.59;71.10;98400.19;7740879;32;40019;-83
2023/08/06 00:31:45;;;;;;;22.35;13.75;;;;;;;21.29;71.68;98406.56;7766703;32;37978;-83
2023/08/06 00:36:02;;;;;;;21.70;13.45;;;;;;;20.26;75.28;98418.53;7759270;32;37301;-82
2023/08/06 00:40:22;;;;;;;19.45;12.60;;;;;;;20.43;74.52;98419.19;7739571;32;39331;-83
2023/08/06 00:44:39;;;;;;;19.37;11.52;;;;;;;20.51;73.88;98423.66;7739377;32;39834;-82
2023/08/06 00:48:55;;;;;;;17.42;10.77;;;;;;;20.89;72.25;98416.34;7739397;32;38115;-83
2023/08/06 00:53:12;;;;;;;20.70;10.98;;;;;;;20.78;71.97;98418.97;7739600;32;37707;-83
2023/08/06 00:57:28;;;;;;;18.37;10.85;;;;;;;20.58;72.43;98415.47;7739429;32;39272;-83
2023/08/06 01:01:45;;;;;;;18.48;11.15;;;;;;;20.56;72.39;98398.44;7748757;32;39866;-83
2023/08/06 01:06:01;;;;;;;18.98;10.85;;;;;;;20.45;73.08;98367.00;7765757;32;38637;-83
2023/08/06 01:10:39;;;;;;;19.45;10.40;;;;;;;20.67;71.93;98359.06;7766450;32;36835;-83
2023/08/06 01:15:12;;;;;;;20.48;9.48;;;;;;;20.80;71.38;98364.00;7765254;32;39726;-83
2023/08/06 01:19:28;;;;;;;17.50;9.35;;;;;;;20.43;72.96;98355.53;7766172;32;40752;-83
2023/08/06 01:23:46;;;;;;;20.37;9.75;;;;;;;20.57;72.08;98347.41;7766011;32;37989;-83
2023/08/06 01:28:15;;;;;;;17.45;9.05;;;;;;;20.60;72.21;98337.56;7758276;32;37076;-83
2023/08/06 01:32:35;;;;;;;16.05;9.00;;;;;;;20.51;72.02;98335.09;7740647;32;39763;-82
2023/08/06 01:36:52;;;;;;;16.90;8.68;;;;;;;20.55;71.88;98327.62;7764821;32;39937;-83
2023/08/06 01:41:08;;;;;;;15.52;8.57;;;;;;;20.55;71.97;98330.38;7765782;32;37919;-83
2023/08/06 01:45:24;;;;;;;17.23;8.30;;;;;;;20.70;71.58;98330.63;7765727;32;37713;-83
2023/08/06 01:49:40;;;;;;;13.07;7.40;;;;;;;20.74;71.23;98320.38;7748336;32;39965;-83
2023/08/06 01:53:57;;;;;;;12.35;7.20;;;;;;;20.72;71.20;98312.44;7738832;32;39986;-83
2023/08/06 01:58:13;;;;;;;14.68;8.20;;;;;;;20.78;71.37;98293.53;7739456;32;38181;-83
2023/08/06 02:02:29;;;;;;;15.85;8.00;;;;;;;20.81;71.44;98298.31;7738692;32;37699;-83
2023/08/06 02:06:45;;;;;;;15.68;6.78;;;;;;;20.97;70.66;98290.62;7738680;32;39173;-83
2023/08/06 02:11:02;;;;;;;16.12;6.95;;;;;;;20.96;70.36;98272.38;7738710;32;40508;-82
2023/08/06 02:15:18;;;;;;;11.18;6.53;;;;;;;20.76;70.61;98263.44;7737351;32;37926;-83
2023/08/06 02:19:35;;;;;;;14.30;6.87;;;;;;;20.49;71.21;98256.34;7738557;32;37933;-83
2023/08/06 02:23:51;;;;;;;16.10;6.50;;;;;;;20.62;70.97;98253.00;7738559;32;39374;-83
2023/08/06 02:28:07;;;;;;;14.30;6.62;;;;;;;20.57;70.99;98244.97;7738590;32;40922;-82
2023/08/06 02:32:23;;;;;;;14.18;6.57;;;;;;;20.33;71.66;98242.69;7738331;32;37682;-83
2023/08/06 02:36:40;;;;;;;14.10;6.37;;;;;;;20.56;71.14;98237.09;7738347;32;36826;-82
2023/08/06 02:40:56;;;;;;;12.55;6.37;;;;;;;20.60;70.72;98230.41;7750059;32;39369;-82
2023/08/06 02:45:12;;;;;;;11.73;6.03;;;;;;;20.52;71.17;98225.16;7764043;32;39900;-83
2023/08/06 02:49:28;;;;;;;10.80;5.82;;;;;;;20.46;71.69;98210.84;7765149;32;37837;-83
2023/08/06 02:53:45;;;;;;;10.60;5.28;;;;;;;20.52;71.59;98214.06;7765175;32;37878;-83
2023/08/06 02:58:02;;;;;;;9.00;5.45;;;;;;;20.63;71.12;98215.03;7765066;32;39153;-83
2023/08/06 03:02:18;;;;;;;11.00;5.45;;;;;;;20.67;70.56;98204.81;7764891;32;39954;-83
2023/08/06 03:06:34;;;;;;;13.10;5.60;;;;;;;20.47;70.86;98214.41;7764946;32;38666;-83
2023/08/06 03:10:51;;;;;;;11.90;5.10;;;;;;;20.73;70.04;98221.88;7764924;32;37149;-83
2023/08/06 03:15:08;;;;;;;10.90;5.93;;;;;;;20.75;70.05;98222.31;7764853;32;39920;-84
2023/08/06 03:19:24;;;;;;;15.27;6.03;;;;;;;20.69;70.29;98229.34;7764587;32;40023;-84
2023/08/06 03:23:40;;;;;;;9.45;5.53;;;;;;;20.73;70.21;98227.41;7763203;32;38080;-84
2023/08/06 03:27:57;;;;;;;11.40;5.00;;;;;;;20.49;71.13;98215.63;7764028;32;37157;-85
2023/08/06 03:32:13;;;;;;;9.52;5.70;;;;;;;20.50;71.05;98210.87;7763112;32;39935;-87
2023/08/06 03:36:29;;;;;;;10.10;5.45;;;;;;;20.58;70.96;98204.28;7764026;32;40406;-83
2023/08/06 03:40:46;;;;;;;10.43;4.93;;;;;;;20.71;70.42;98200.09;7759482;32;37782;-86
2023/08/06 03:45:03;;;;;;;11.00;5.43;;;;;;;20.77;70.33;98203.34;7729923;32;227309;-86
2023/08/06 03:49:19;;;;;;;8.38;4.93;;;;;;;20.76;70.27;98204.50;7737064;32;39916;-86
2023/08/06 03:53:36;;;;;;;10.00;5.25;;;;;;;20.64;70.35;98194.47;7737820;32;40614;-83
2023/08/06 03:57:52;;;;;;;10.48;4.87;;;;;;;20.48;70.72;98188.34;7736849;32;37949;-83
2023/08/06 04:02:08;;;;;;;10.73;5.22;;;;;;;20.60;70.31;98182.53;7736711;32;36953;-83
2023/08/06 04:06:24;;;;;;;8.88;4.75;;;;;;;20.73;69.82;98180.34;7736691;32;39976;-83
2023/08/06 04:10:41;;;;;;;8.80;4.40;;;;;;;20.50;70.34;98177.69;7736560;32;40051;-83
2023/08/06 04:14:58;;;;;;;8.93;4.43;;;;;;;20.40;70.75;98179.13;7736438;32;38813;-84
2023/08/06 04:19:15;;;;;;;12.90;4.85;;;;;;;20.18;71.42;98184.41;7736385;32;37800;-85
2023/08/06 04:23:31;;;;;;;9.75;5.40;;;;;;;19.74;73.15;98187.72;7747977;32;39294;-71
2023/08/06 04:27:48;;;;;;;14.43;5.18;;;;;;;19.62;74.25;98190.69;7760526;32;39498;-71
2023/08/06 04:32:06;;;;;;;10.43;4.87;;;;;;;19.68;74.95;98184.47;7761841;32;37907;-70
2023/08/06 04:36:22;;;;;;;9.02;4.10;;;;;;;19.48;75.13;98175.44;7762051;32;37851;-83
2023/08/06 04:40:38;;;;;;;7.30;3.28;;;;;;;19.48;74.38;98169.94;7765121;32;39200;-82
2023/08/06 04:44:54;;;;;;;5.80;3.28;;;;;;;19.49;73.76;98176.28;7765913;32;39903;-82
2023/08/06 04:49:11;;;;;;;5.47;2.92;;;;;;;19.22;73.90;98178.19;7765349;32;38685;-82
2023/08/06 04:53:27;;;;;;;4.90;2.28;;;;;;;19.42;72.85;98184.44;7765467;32;37545;-84
2023/08/06 04:57:43;;;;;;;3.45;1.92;;;;;;;19.08;74.30;98184.28;7766624;32;39231;-83
2023/08/06 05:02:00;;;;;;;4.55;1.90;;;;;;;19.10;74.03;98177.19;7766346;32;40696;-83
2023/08/06 05:06:16;;;;;;;2.55;1.60;;;;;;;18.82;75.01;98176.66;7766336;32;38581;-84
